Groa de Murviedro, Spain
Current Conditions -  °F | °C
As of 9:00 PM on Wednesday 26 Nov 2014 (Local Time) from LEBT Reporting Station
Clear Clear  
Wind Chill: 52°   Ceiling: Unl
Heat Index: 52°   Visibility: 6mi
Dew Point: 46°   Wind: 2mph
Humidity: 82%   Direction: NA
Pressure: 29.83"   Gusts: NA
Location:  39.64°N, 0.24°W
Report Text: LEBT 262000Z AUTO VRB02KT CAVOK 11/08 Q1010
Loading
Personal Weather Stations






























Interactive Weather Map New forecast layout! Learn more

10-Day Weather Forecast

Advertisements
Track Severe Weather on mobile